sensor_id;sensor_type;location;lat;lon;timestamp;pressure;altitude;pressure_sealevel;temperature;humidity
50867;BME280;36839;51.946;21.002;2023-01-25T00:00:05;102187.48;;;0.54;100.00
50867;BME280;36839;51.946;21.002;2023-01-25T00:02:53;102187.91;;;0.54;100.00
50867;BME280;36839;51.946;21.002;2023-01-25T00:05:21;102183.35;;;0.52;100.00
50867;BME280;36839;51.946;21.002;2023-01-25T00:07:48;102179.09;;;0.50;100.00
50867;BME280;36839;51.946;21.002;2023-01-25T00:10:17;102173.66;;;0.50;100.00
50867;BME280;36839;51.946;21.002;2023-01-25T00:12:51;102174.85;;;0.50;100.00
50867;BME280;36839;51.946;21.002;2023-01-25T00:15:19;102173.94;;;0.52;100.00
50867;BME280;36839;51.946;21.002;2023-01-25T00:17:46;102177.39;;;0.54;100.00
50867;BME280;36839;51.946;21.002;2023-01-25T00:20:14;102177.21;;;0.54;100.00
50867;BME280;36839;51.946;21.002;2023-01-25T00:22:43;102177.52;;;0.49;100.00
50867;BME280;36839;51.946;21.002;2023-01-25T00:25:10;102176.11;;;0.45;100.00
50867;BME280;36839;51.946;21.002;2023-01-25T00:27:37;102174.10;;;0.43;100.00
50867;BME280;36839;51.946;21.002;2023-01-25T00:30:05;102173.66;;;0.44;100.00
50867;BME280;36839;51.946;21.002;2023-01-25T00:32:47;102176.79;;;0.40;100.00
50867;BME280;36839;51.946;21.002;2023-01-25T00:35:16;102176.17;;;0.39;100.00
50867;BME280;36839;51.946;21.002;2023-01-25T00:37:46;102168.11;;;0.42;100.00
50867;BME280;36839;51.946;21.002;2023-01-25T00:40:17;102160.89;;;0.40;100.00
50867;BME280;36839;51.946;21.002;2023-01-25T00:42:50;102155.98;;;0.36;100.00
50867;BME280;36839;51.946;21.002;2023-01-25T00:45:19;102152.30;;;0.35;100.00
50867;BME280;36839;51.946;21.002;2023-01-25T00:47:48;102154.63;;;0.36;100.00
50867;BME280;36839;51.946;21.002;2023-01-25T00:50:16;102152.48;;;0.35;100.00
50867;BME280;36839;51.946;21.002;2023-01-25T00:52:44;102152.27;;;0.32;100.00
50867;BME280;36839;51.946;21.002;2023-01-25T00:55:11;102147.81;;;0.27;100.00
50867;BME280;36839;51.946;21.002;2023-01-25T00:57:38;102145.10;;;0.28;100.00
50867;BME280;36839;51.946;21.002;2023-01-25T01:00:07;102152.80;;;0.27;100.00
50867;BME280;36839;51.946;21.002;2023-01-25T01:02:36;102152.06;;;0.27;100.00
50867;BME280;36839;51.946;21.002;2023-01-25T01:05:05;102145.15;;;0.24;100.00
50867;BME280;36839;51.946;21.002;2023-01-25T01:07:41;102149.13;;;0.20;100.00
50867;BME280;36839;51.946;21.002;2023-01-25T01:10:09;102144.67;;;0.18;100.00
50867;BME280;36839;51.946;21.002;2023-01-25T01:12:37;102143.79;;;0.12;100.00
50867;BME280;36839;51.946;21.002;2023-01-25T01:15:05;102142.27;;;0.14;100.00
50867;BME280;36839;51.946;21.002;2023-01-25T01:17:40;102141.45;;;0.14;100.00
50867;BME280;36839;51.946;21.002;2023-01-25T01:20:20;102136.55;;;0.12;100.00
50867;BME280;36839;51.946;21.002;2023-01-25T01:22:52;102135.34;;;0.13;100.00
50867;BME280;36839;51.946;21.002;2023-01-25T01:25:27;102133.70;;;0.10;100.00
50867;BME280;36839;51.946;21.002;2023-01-25T01:28:00;102133.60;;;0.07;100.00
50867;BME280;36839;51.946;21.002;2023-01-25T01:30:27;102134.80;;;-0.03;100.00
50867;BME280;36839;51.946;21.002;2023-01-25T01:32:54;102129.60;;;-0.04;100.00
50867;BME280;36839;51.946;21.002;2023-01-25T01:35:22;102125.93;;;-0.03;100.00
50867;BME280;36839;51.946;21.002;2023-01-25T01:37:51;102126.02;;;-0.04;100.00
50867;BME280;36839;51.946;21.002;2023-01-25T01:40:19;102126.10;;;-0.03;100.00
50867;BME280;36839;51.946;21.002;2023-01-25T01:54:42;102126.65;;;-0.06;100.00
50867;BME280;36839;51.946;21.002;2023-01-25T01:57:19;102121.63;;;-0.07;100.00
50867;BME280;36839;51.946;21.002;2023-01-25T01:59:52;102122.85;;;-0.09;100.00
50867;BME280;36839;51.946;21.002;2023-01-25T02:02:23;102119.98;;;-0.10;100.00
50867;BME280;36839;51.946;21.002;2023-01-25T02:04:55;102119.16;;;-0.11;100.00
50867;BME280;36839;51.946;21.002;2023-01-25T02:07:30;102116.78;;;-0.09;100.00
50867;BME280;36839;51.946;21.002;2023-01-25T02:10:06;102111.98;;;-0.12;100.00
50867;BME280;36839;51.946;21.002;2023-01-25T02:12:36;102118.14;;;-0.17;100.00
50867;BME280;36839;51.946;21.002;2023-01-25T02:15:05;102113.63;;;-0.19;100.00
50867;BME280;36839;51.946;21.002;2023-01-25T02:17:39;102114.06;;;-0.20;100.00
50867;BME280;36839;51.946;21.002;2023-01-25T02:20:52;102116.24;;;-0.23;100.00
50867;BME280;36839;51.946;21.002;2023-01-25T02:26:17;102105.11;;;-0.28;100.00
50867;BME280;36839;51.946;21.002;2023-01-25T02:28:59;102105.13;;;-0.28;100.00
50867;BME280;36839;51.946;21.002;2023-01-25T02:31:30;102101.76;;;-0.29;100.00
50867;BME280;36839;51.946;21.002;2023-01-25T02:33:59;102094.03;;;-0.32;100.00
50867;BME280;36839;51.946;21.002;2023-01-25T02:36:30;102091.84;;;-0.33;100.00
50867;BME280;36839;51.946;21.002;2023-01-25T02:39:04;102092.63;;;-0.37;100.00
50867;BME280;36839;51.946;21.002;2023-01-25T02:41:40;102087.99;;;-0.36;100.00
50867;BME280;36839;51.946;21.002;2023-01-25T02:44:14;102088.34;;;-0.40;100.00
50867;BME280;36839;51.946;21.002;2023-01-25T02:46:43;102088.68;;;-0.39;100.00
50867;BME280;36839;51.946;21.002;2023-01-25T02:49:11;102082.54;;;-0.40;100.00
50867;BME280;36839;51.946;21.002;2023-01-25T02:51:44;102084.29;;;-0.41;100.00
50867;BME280;36839;51.946;21.002;2023-01-25T02:54:14;102074.36;;;-0.43;100.00
50867;BME280;36839;51.946;21.002;2023-01-25T02:56:44;102069.20;;;-0.44;100.00
50867;BME280;36839;51.946;21.002;2023-01-25T02:59:12;102069.33;;;-0.45;100.00
50867;BME280;36839;51.946;21.002;2023-01-25T03:01:41;102069.16;;;-0.45;100.00
50867;BME280;36839;51.946;21.002;2023-01-25T03:04:14;102068.40;;;-0.46;100.00
50867;BME280;36839;51.946;21.002;2023-01-25T03:06:42;102065.96;;;-0.45;100.00
50867;BME280;36839;51.946;21.002;2023-01-25T03:09:10;102069.96;;;-0.46;100.00
50867;BME280;36839;51.946;21.002;2023-01-25T03:11:38;102067.78;;;-0.44;100.00
50867;BME280;36839;51.946;21.002;2023-01-25T03:14:05;102069.02;;;-0.45;100.00
50867;BME280;36839;51.946;21.002;2023-01-25T03:16:34;102072.09;;;-0.49;100.00
50867;BME280;36839;51.946;21.002;2023-01-25T03:19:10;102068.57;;;-0.52;100.00
50867;BME280;36839;51.946;21.002;2023-01-25T03:21:40;102066.88;;;-0.51;100.00
50867;BME280;36839;51.946;21.002;2023-01-25T03:24:08;102062.11;;;-0.52;100.00
50867;BME280;36839;51.946;21.002;2023-01-25T03:26:42;102052.55;;;-0.52;100.00
50867;BME280;36839;51.946;21.002;2023-01-25T03:29:30;102051.16;;;-0.53;100.00
50867;BME280;36839;51.946;21.002;2023-01-25T03:31:59;102044.66;;;-0.55;100.00
50867;BME280;36839;51.946;21.002;2023-01-25T03:34:27;102039.61;;;-0.55;100.00
50867;BME280;36839;51.946;21.002;2023-01-25T03:36:54;102034.73;;;-0.55;100.00
50867;BME280;36839;51.946;21.002;2023-01-25T03:39:21;102032.42;;;-0.60;100.00
50867;BME280;36839;51.946;21.002;2023-01-25T03:41:50;102035.54;;;-0.60;100.00
50867;BME280;36839;51.946;21.002;2023-01-25T03:44:17;102030.52;;;-0.66;100.00
50867;BME280;36839;51.946;21.002;2023-01-25T03:46:44;102025.88;;;-0.66;100.00
50867;BME280;36839;51.946;21.002;2023-01-25T03:49:12;102025.22;;;-0.65;100.00
50867;BME280;36839;51.946;21.002;2023-01-25T03:51:39;102016.30;;;-0.65;100.00
50867;BME280;36839;51.946;21.002;2023-01-25T03:54:06;102021.13;;;-0.64;100.00
50867;BME280;36839;51.946;21.002;2023-01-25T03:56:36;102026.92;;;-0.64;100.00
50867;BME280;36839;51.946;21.002;2023-01-25T03:59:04;102026.51;;;-0.67;100.00
50867;BME280;36839;51.946;21.002;2023-01-25T04:01:41;102021.02;;;-0.68;100.00
50867;BME280;36839;51.946;21.002;2023-01-25T04:04:07;102015.10;;;-0.67;100.00
50867;BME280;36839;51.946;21.002;2023-01-25T04:06:39;102009.11;;;-0.67;100.00
50867;BME280;36839;51.946;21.002;2023-01-25T04:09:06;102006.74;;;-0.69;100.00
50867;BME280;36839;51.946;21.002;2023-01-25T04:11:36;102003.14;;;-0.69;100.00
50867;BME280;36839;51.946;21.002;2023-01-25T04:14:03;102004.88;;;-0.66;100.00
50867;BME280;36839;51.946;21.002;2023-01-25T04:16:30;102003.83;;;-0.64;100.00
50867;BME280;36839;51.946;21.002;2023-01-25T04:18:57;102000.50;;;-0.64;100.00
50867;BME280;36839;51.946;21.002;2023-01-25T04:21:24;101995.02;;;-0.67;100.00
50867;BME280;36839;51.946;21.002;2023-01-25T04:23:51;101994.04;;;-0.72;100.00
50867;BME280;36839;51.946;21.002;2023-01-25T04:26:22;101994.77;;;-0.75;100.00
50867;BME280;36839;51.946;21.002;2023-01-25T04:28:52;101997.52;;;-0.75;100.00
50867;BME280;36839;51.946;21.002;2023-01-25T04:31:19;102011.43;;;-0.75;100.00
50867;BME280;36839;51.946;21.002;2023-01-25T04:33:49;102029.00;;;-0.79;100.00
50867;BME280;36839;51.946;21.002;2023-01-25T04:36:16;102030.41;;;-0.87;100.00
50867;BME280;36839;51.946;21.002;2023-01-25T04:38:43;102015.58;;;-0.92;100.00
50867;BME280;36839;51.946;21.002;2023-01-25T04:41:10;102013.94;;;-0.95;100.00
50867;BME280;36839;51.946;21.002;2023-01-25T04:43:37;102010.23;;;-0.96;100.00
50867;BME280;36839;51.946;21.002;2023-01-25T04:46:04;102007.54;;;-0.97;100.00
50867;BME280;36839;51.946;21.002;2023-01-25T04:48:32;101998.53;;;-0.99;100.00
50867;BME280;36839;51.946;21.002;2023-01-25T04:51:05;101998.83;;;-1.00;100.00
50867;BME280;36839;51.946;21.002;2023-01-25T04:53:35;101990.93;;;-0.97;100.00
50867;BME280;36839;51.946;21.002;2023-01-25T04:56:03;101984.41;;;-0.95;100.00
50867;BME280;36839;51.946;21.002;2023-01-25T04:58:33;101992.98;;;-0.97;100.00
50867;BME280;36839;51.946;21.002;2023-01-25T05:01:01;101992.95;;;-0.99;100.00
50867;BME280;36839;51.946;21.002;2023-01-25T05:03:30;101992.92;;;-0.98;100.00
50867;BME280;36839;51.946;21.002;2023-01-25T05:05:57;101989.73;;;-0.98;100.00
50867;BME280;36839;51.946;21.002;2023-01-25T05:08:25;101996.95;;;-0.99;100.00
50867;BME280;36839;51.946;21.002;2023-01-25T05:10:52;101993.55;;;-0.99;100.00
50867;BME280;36839;51.946;21.002;2023-01-25T05:13:22;101988.65;;;-0.97;100.00
50867;BME280;36839;51.946;21.002;2023-01-25T05:15:49;101974.77;;;-1.00;100.00
50867;BME280;36839;51.946;21.002;2023-01-25T05:18:19;101981.23;;;-1.01;100.00
50867;BME280;36839;51.946;21.002;2023-01-25T05:20:46;101981.15;;;-1.02;100.00
50867;BME280;36839;51.946;21.002;2023-01-25T05:23:15;101978.30;;;-1.02;100.00
50867;BME280;36839;51.946;21.002;2023-01-25T05:25:43;101979.73;;;-1.02;100.00
50867;BME280;36839;51.946;21.002;2023-01-25T05:28:29;101975.74;;;-1.00;100.00
50867;BME280;36839;51.946;21.002;2023-01-25T05:30:56;101972.34;;;-1.04;100.00
50867;BME280;36839;51.946;21.002;2023-01-25T05:33:23;101972.11;;;-1.06;100.00
50867;BME280;36839;51.946;21.002;2023-01-25T05:35:50;101971.77;;;-1.04;100.00
50867;BME280;36839;51.946;21.002;2023-01-25T05:38:19;101972.01;;;-1.06;100.00
50867;BME280;36839;51.946;21.002;2023-01-25T05:40:47;101965.21;;;-1.07;100.00
50867;BME280;36839;51.946;21.002;2023-01-25T05:43:24;101960.79;;;-1.04;100.00
50867;BME280;36839;51.946;21.002;2023-01-25T05:45:55;101961.77;;;-1.05;100.00
50867;BME280;36839;51.946;21.002;2023-01-25T05:48:25;101966.02;;;-1.09;100.00
50867;BME280;36839;51.946;21.002;2023-01-25T05:50:56;101969.41;;;-1.07;100.00
50867;BME280;36839;51.946;21.002;2023-01-25T05:53:26;101968.07;;;-1.10;100.00
50867;BME280;36839;51.946;21.002;2023-01-25T05:55:54;101965.98;;;-1.13;100.00
50867;BME280;36839;51.946;21.002;2023-01-25T05:58:23;101965.98;;;-1.13;100.00
50867;BME280;36839;51.946;21.002;2023-01-25T06:00:59;101968.43;;;-1.14;100.00
50867;BME280;36839;51.946;21.002;2023-01-25T06:03:28;101969.29;;;-1.13;100.00
50867;BME280;36839;51.946;21.002;2023-01-25T06:05:57;101963.42;;;-1.15;100.00
50867;BME280;36839;51.946;21.002;2023-01-25T06:08:28;101966.31;;;-1.18;100.00
50867;BME280;36839;51.946;21.002;2023-01-25T06:10:56;101969.71;;;-1.20;100.00
50867;BME280;36839;51.946;21.002;2023-01-25T06:13:24;101970.99;;;-1.18;100.00
50867;BME280;36839;51.946;21.002;2023-01-25T06:15:54;101975.21;;;-1.15;100.00
50867;BME280;36839;51.946;21.002;2023-01-25T06:18:37;101968.44;;;-1.16;100.00
50867;BME280;36839;51.946;21.002;2023-01-25T06:21:07;101966.64;;;-1.14;100.00
50867;BME280;36839;51.946;21.002;2023-01-25T06:23:36;101968.35;;;-1.13;100.00
50867;BME280;36839;51.946;21.002;2023-01-25T06:26:09;101967.52;;;-1.14;100.00
50867;BME280;36839;51.946;21.002;2023-01-25T06:28:39;101963.27;;;-1.17;100.00
50867;BME280;36839;51.946;21.002;2023-01-25T06:31:09;101960.16;;;-1.17;100.00
50867;BME280;36839;51.946;21.002;2023-01-25T06:33:38;101958.73;;;-1.12;100.00
50867;BME280;36839;51.946;21.002;2023-01-25T06:36:11;101960.32;;;-1.12;100.00
50867;BME280;36839;51.946;21.002;2023-01-25T06:38:58;101956.63;;;-1.13;100.00
50867;BME280;36839;51.946;21.002;2023-01-25T06:41:25;101952.82;;;-1.16;100.00
50867;BME280;36839;51.946;21.002;2023-01-25T06:43:53;101946.94;;;-1.20;100.00
50867;BME280;36839;51.946;21.002;2023-01-25T06:46:22;101940.55;;;-1.19;100.00
50867;BME280;36839;51.946;21.002;2023-01-25T06:48:49;101938.81;;;-1.20;100.00
50867;BME280;36839;51.946;21.002;2023-01-25T06:51:17;101928.39;;;-1.22;100.00
50867;BME280;36839;51.946;21.002;2023-01-25T06:53:47;101934.48;;;-1.24;100.00
50867;BME280;36839;51.946;21.002;2023-01-25T06:56:24;101935.02;;;-1.25;100.00
50867;BME280;36839;51.946;21.002;2023-01-25T06:58:52;101941.34;;;-1.25;100.00
50867;BME280;36839;51.946;21.002;2023-01-25T07:01:23;101948.02;;;-1.23;100.00
50867;BME280;36839;51.946;21.002;2023-01-25T07:03:57;101955.33;;;-1.22;100.00
50867;BME280;36839;51.946;21.002;2023-01-25T07:06:30;101957.44;;;-1.26;100.00
50867;BME280;36839;51.946;21.002;2023-01-25T07:09:11;101955.39;;;-1.23;100.00
50867;BME280;36839;51.946;21.002;2023-01-25T07:11:39;101950.65;;;-1.19;100.00
50867;BME280;36839;51.946;21.002;2023-01-25T07:14:06;101951.52;;;-1.17;100.00
50867;BME280;36839;51.946;21.002;2023-01-25T07:16:33;101949.05;;;-1.21;100.00
50867;BME280;36839;51.946;21.002;2023-01-25T07:19:10;101942.91;;;-1.25;100.00
50867;BME280;36839;51.946;21.002;2023-01-25T07:21:39;101941.44;;;-1.26;100.00
50867;BME280;36839;51.946;21.002;2023-01-25T07:24:06;101939.27;;;-1.26;100.00
50867;BME280;36839;51.946;21.002;2023-01-25T07:26:35;101932.77;;;-1.25;100.00
50867;BME280;36839;51.946;21.002;2023-01-25T07:29:02;101931.67;;;-1.26;100.00
50867;BME280;36839;51.946;21.002;2023-01-25T07:31:31;101925.89;;;-1.26;100.00
50867;BME280;36839;51.946;21.002;2023-01-25T07:33:59;101922.27;;;-1.25;100.00
50867;BME280;36839;51.946;21.002;2023-01-25T07:36:29;101920.17;;;-1.25;100.00
50867;BME280;36839;51.946;21.002;2023-01-25T07:39:10;101911.86;;;-1.21;100.00
50867;BME280;36839;51.946;21.002;2023-01-25T07:41:39;101910.67;;;-1.21;100.00
50867;BME280;36839;51.946;21.002;2023-01-25T07:44:06;101913.62;;;-1.21;100.00
50867;BME280;36839;51.946;21.002;2023-01-25T07:46:33;101914.52;;;-1.24;100.00
50867;BME280;36839;51.946;21.002;2023-01-25T07:49:03;101911.57;;;-1.28;100.00
50867;BME280;36839;51.946;21.002;2023-01-25T07:51:35;101909.64;;;-1.30;100.00
50867;BME280;36839;51.946;21.002;2023-01-25T07:54:03;101911.02;;;-1.29;100.00
50867;BME280;36839;51.946;21.002;2023-01-25T07:56:34;101905.41;;;-1.31;100.00
50867;BME280;36839;51.946;21.002;2023-01-25T07:59:05;101906.45;;;-1.29;100.00
50867;BME280;36839;51.946;21.002;2023-01-25T08:01:40;101904.09;;;-1.27;100.00
50867;BME280;36839;51.946;21.002;2023-01-25T08:04:09;101909.10;;;-1.28;100.00
50867;BME280;36839;51.946;21.002;2023-01-25T08:06:37;101908.90;;;-1.24;100.00
50867;BME280;36839;51.946;21.002;2023-01-25T08:09:11;101901.77;;;-1.20;100.00
50867;BME280;36839;51.946;21.002;2023-01-25T08:11:42;101898.04;;;-1.17;100.00
50867;BME280;36839;51.946;21.002;2023-01-25T08:14:09;101906.23;;;-1.18;100.00
50867;BME280;36839;51.946;21.002;2023-01-25T08:16:37;101905.64;;;-1.15;100.00
50867;BME280;36839;51.946;21.002;2023-01-25T08:19:04;101904.98;;;-1.14;100.00
50867;BME280;36839;51.946;21.002;2023-01-25T08:21:33;101904.19;;;-1.15;100.00
50867;BME280;36839;51.946;21.002;2023-01-25T08:24:10;101892.57;;;-1.15;100.00
50867;BME280;36839;51.946;21.002;2023-01-25T08:26:39;101894.66;;;-1.16;100.00
50867;BME280;36839;51.946;21.002;2023-01-25T08:29:11;101896.14;;;-1.14;100.00
50867;BME280;36839;51.946;21.002;2023-01-25T08:31:41;101891.23;;;-1.14;100.00
50867;BME280;36839;51.946;21.002;2023-01-25T08:34:12;101891.70;;;-1.17;100.00
50867;BME280;36839;51.946;21.002;2023-01-25T08:36:42;101885.83;;;-1.18;100.00
50867;BME280;36839;51.946;21.002;2023-01-25T08:39:11;101885.48;;;-1.20;100.00
50867;BME280;36839;51.946;21.002;2023-01-25T08:41:40;101885.58;;;-1.19;100.00
50867;BME280;36839;51.946;21.002;2023-01-25T08:44:08;101886.72;;;-1.21;100.00
50867;BME280;36839;51.946;21.002;2023-01-25T08:46:36;101879.10;;;-1.23;100.00
50867;BME280;36839;51.946;21.002;2023-01-25T08:49:04;101879.65;;;-1.23;100.00
50867;BME280;36839;51.946;21.002;2023-01-25T08:51:34;101877.20;;;-1.22;100.00
50867;BME280;36839;51.946;21.002;2023-01-25T08:54:07;101874.40;;;-1.19;100.00
50867;BME280;36839;51.946;21.002;2023-01-25T08:56:38;101877.28;;;-1.19;100.00
50867;BME280;36839;51.946;21.002;2023-01-25T08:59:08;101868.35;;;-1.22;100.00
50867;BME280;36839;51.946;21.002;2023-01-25T09:01:48;101870.77;;;-1.23;100.00
50867;BME280;36839;51.946;21.002;2023-01-25T09:04:15;101870.85;;;-1.21;100.00
50867;BME280;36839;51.946;21.002;2023-01-25T09:06:43;101871.37;;;-1.21;100.00
50867;BME280;36839;51.946;21.002;2023-01-25T09:09:12;101870.23;;;-1.23;100.00
50867;BME280;36839;51.946;21.002;2023-01-25T09:11:39;101865.90;;;-1.22;100.00
50867;BME280;36839;51.946;21.002;2023-01-25T09:14:07;101867.73;;;-1.26;100.00
50867;BME280;36839;51.946;21.002;2023-01-25T09:16:37;101867.38;;;-1.32;100.00
50867;BME280;36839;51.946;21.002;2023-01-25T09:19:09;101863.02;;;-1.32;100.00
50867;BME280;36839;51.946;21.002;2023-01-25T09:21:37;101864.48;;;-1.32;100.00
50867;BME280;36839;51.946;21.002;2023-01-25T09:24:05;101863.59;;;-1.28;100.00
50867;BME280;36839;51.946;21.002;2023-01-25T09:26:39;101867.48;;;-1.24;100.00
50867;BME280;36839;51.946;21.002;2023-01-25T09:29:09;101868.28;;;-1.14;100.00
50867;BME280;36839;51.946;21.002;2023-01-25T09:31:38;101870.33;;;-1.09;100.00
50867;BME280;36839;51.946;21.002;2023-01-25T09:34:06;101864.08;;;-1.04;100.00
50867;BME280;36839;51.946;21.002;2023-01-25T09:36:35;101860.53;;;-1.00;100.00
50867;BME280;36839;51.946;21.002;2023-01-25T09:39:03;101858.39;;;-1.00;100.00
50867;BME280;36839;51.946;21.002;2023-01-25T09:44:41;101852.00;;;-0.98;100.00
50867;BME280;36839;51.946;21.002;2023-01-25T09:53:26;101830.72;;;-1.02;100.00
50867;BME280;36839;51.946;21.002;2023-01-25T09:56:24;101821.96;;;-0.98;100.00
50867;BME280;36839;51.946;21.002;2023-01-25T09:58:59;101818.48;;;-0.97;100.00
50867;BME280;36839;51.946;21.002;2023-01-25T10:04:24;101813.27;;;-0.96;100.00
50867;BME280;36839;51.946;21.002;2023-01-25T10:06:56;101811.89;;;-0.98;100.00
50867;BME280;36839;51.946;21.002;2023-01-25T10:09:41;101807.83;;;-0.97;100.00
50867;BME280;36839;51.946;21.002;2023-01-25T10:12:24;101806.23;;;-0.99;100.00
50867;BME280;36839;51.946;21.002;2023-01-25T10:14:58;101796.60;;;-1.00;100.00
50867;BME280;36839;51.946;21.002;2023-01-25T10:17:37;101787.72;;;-0.98;100.00
50867;BME280;36839;51.946;21.002;2023-01-25T10:20:18;101790.07;;;-0.97;100.00
50867;BME280;36839;51.946;21.002;2023-01-25T10:26:06;101781.35;;;-0.98;100.00
50867;BME280;36839;51.946;21.002;2023-01-25T10:31:45;101771.68;;;-0.99;100.00
50867;BME280;36839;51.946;21.002;2023-01-25T10:34:50;101769.41;;;-1.00;100.00
50867;BME280;36839;51.946;21.002;2023-01-25T10:37:24;101765.86;;;-0.97;100.00
50867;BME280;36839;51.946;21.002;2023-01-25T10:40:08;101761.66;;;-0.95;100.00
50867;BME280;36839;51.946;21.002;2023-01-25T10:45:19;101757.14;;;-0.91;100.00
50867;BME280;36839;51.946;21.002;2023-01-25T10:47:49;101756.80;;;-0.92;100.00
50867;BME280;36839;51.946;21.002;2023-01-25T10:50:59;101755.69;;;-0.88;100.00
50867;BME280;36839;51.946;21.002;2023-01-25T10:53:38;101753.22;;;-0.85;100.00
50867;BME280;36839;51.946;21.002;2023-01-25T10:56:18;101747.90;;;-0.80;100.00
50867;BME280;36839;51.946;21.002;2023-01-25T10:58:51;101743.64;;;-0.83;100.00
50867;BME280;36839;51.946;21.002;2023-01-25T11:01:27;101744.50;;;-0.85;100.00
50867;BME280;36839;51.946;21.002;2023-01-25T11:03:57;101740.33;;;-0.84;100.00
50867;BME280;36839;51.946;21.002;2023-01-25T11:06:36;101735.96;;;-0.89;100.00
50867;BME280;36839;51.946;21.002;2023-01-25T11:09:36;101733.60;;;-0.84;100.00
50867;BME280;36839;51.946;21.002;2023-01-25T11:15:22;101728.80;;;-0.80;100.00
50867;BME280;36839;51.946;21.002;2023-01-25T11:18:06;101723.96;;;-0.77;100.00
50867;BME280;36839;51.946;21.002;2023-01-25T11:20:38;101715.55;;;-0.75;100.00
50867;BME280;36839;51.946;21.002;2023-01-25T11:23:27;101708.33;;;-0.62;100.00
50867;BME280;36839;51.946;21.002;2023-01-25T11:28:37;101701.86;;;-0.44;100.00
50867;BME280;36839;51.946;21.002;2023-01-25T11:31:11;101690.27;;;-0.54;100.00
50867;BME280;36839;51.946;21.002;2023-01-25T11:33:40;101685.23;;;-0.57;100.00
50867;BME280;36839;51.946;21.002;2023-01-25T11:39:04;101678.90;;;-0.54;100.00
50867;BME280;36839;51.946;21.002;2023-01-25T11:44:56;101673.55;;;-0.53;100.00
50867;BME280;36839;51.946;21.002;2023-01-25T11:50:38;101669.87;;;-0.60;100.00
50867;BME280;36839;51.946;21.002;2023-01-25T11:56:59;101669.98;;;-0.62;100.00
50867;BME280;36839;51.946;21.002;2023-01-25T12:00:09;101667.56;;;-0.63;100.00
50867;BME280;36839;51.946;21.002;2023-01-25T12:03:05;101671.13;;;-0.61;100.00
50867;BME280;36839;51.946;21.002;2023-01-25T12:06:02;101670.14;;;-0.62;100.00
50867;BME280;36839;51.946;21.002;2023-01-25T12:08:57;101663.88;;;-0.61;100.00
50867;BME280;36839;51.946;21.002;2023-01-25T12:12:08;101662.64;;;-0.61;100.00
50867;BME280;36839;51.946;21.002;2023-01-25T12:15:19;101657.84;;;-0.60;100.00
50867;BME280;36839;51.946;21.002;2023-01-25T12:26:44;101629.03;;;-0.68;100.00
50867;BME280;36839;51.946;21.002;2023-01-25T12:32:12;101617.90;;;-0.66;100.00
50867;BME280;36839;51.946;21.002;2023-01-25T12:34:48;101615.77;;;-0.61;100.00
50867;BME280;36839;51.946;21.002;2023-01-25T12:37:27;101607.94;;;-0.54;100.00
50867;BME280;36839;51.946;21.002;2023-01-25T12:40:20;101604.79;;;-0.49;100.00
50867;BME280;36839;51.946;21.002;2023-01-25T12:42:56;101597.42;;;-0.46;100.00
50867;BME280;36839;51.946;21.002;2023-01-25T12:45:33;101596.98;;;-0.41;100.00
50867;BME280;36839;51.946;21.002;2023-01-25T12:48:21;101595.39;;;-0.41;100.00
50867;BME280;36839;51.946;21.002;2023-01-25T12:51:10;101594.29;;;-0.38;100.00
50867;BME280;36839;51.946;21.002;2023-01-25T12:53:47;101596.54;;;-0.39;100.00
50867;BME280;36839;51.946;21.002;2023-01-25T12:56:45;101595.22;;;-0.43;100.00
50867;BME280;36839;51.946;21.002;2023-01-25T12:59:44;101587.92;;;-0.52;100.00
50867;BME280;36839;51.946;21.002;2023-01-25T13:10:43;101582.59;;;-0.52;100.00
50867;BME280;36839;51.946;21.002;2023-01-25T13:13:26;101582.16;;;-0.54;100.00
50867;BME280;36839;51.946;21.002;2023-01-25T13:15:56;101580.09;;;-0.53;100.00
50867;BME280;36839;51.946;21.002;2023-01-25T13:20:52;101577.88;;;-0.55;100.00
50867;BME280;36839;51.946;21.002;2023-01-25T13:23:41;101577.88;;;-0.60;100.00
50867;BME280;36839;51.946;21.002;2023-01-25T13:28:55;101576.98;;;-0.65;100.00
50867;BME280;36839;51.946;21.002;2023-01-25T13:37:22;101566.63;;;-0.72;100.00
50867;BME280;36839;51.946;21.002;2023-01-25T13:39:53;101561.58;;;-0.68;100.00
50867;BME280;36839;51.946;21.002;2023-01-25T13:42:24;101557.63;;;-0.65;100.00
50867;BME280;36839;51.946;21.002;2023-01-25T13:45:17;101560.21;;;-0.62;100.00
50867;BME280;36839;51.946;21.002;2023-01-25T13:48:00;101555.27;;;-0.65;100.00
50867;BME280;36839;51.946;21.002;2023-01-25T13:50:32;101553.60;;;-0.62;100.00
50867;BME280;36839;51.946;21.002;2023-01-25T13:55:45;101543.23;;;-0.63;100.00
50867;BME280;36839;51.946;21.002;2023-01-25T13:58:23;101537.82;;;-0.66;100.00
50867;BME280;36839;51.946;21.002;2023-01-25T14:01:04;101538.27;;;-0.69;100.00
50867;BME280;36839;51.946;21.002;2023-01-25T14:03:44;101540.52;;;-0.71;100.00
50867;BME280;36839;51.946;21.002;2023-01-25T14:06:31;101538.01;;;-0.69;100.00
50867;BME280;36839;51.946;21.002;2023-01-25T14:09:15;101533.66;;;-0.68;100.00
50867;BME280;36839;51.946;21.002;2023-01-25T14:11:57;101530.58;;;-0.71;100.00
50867;BME280;36839;51.946;21.002;2023-01-25T14:14:33;101524.30;;;-0.73;100.00
50867;BME280;36839;51.946;21.002;2023-01-25T14:17:20;101520.42;;;-0.77;100.00
50867;BME280;36839;51.946;21.002;2023-01-25T14:19:53;101514.63;;;-0.76;100.00
50867;BME280;36839;51.946;21.002;2023-01-25T14:22:26;101512.37;;;-0.73;100.00
50867;BME280;36839;51.946;21.002;2023-01-25T14:25:20;101510.88;;;-0.69;100.00
50867;BME280;36839;51.946;21.002;2023-01-25T14:27:54;101506.13;;;-0.57;100.00